createdAt,value
2018-03-18T00:01:41.981Z,52.02
2018-03-18T00:04:07.866Z,50.42
2018-03-18T00:06:33.861Z,51.63
2018-03-18T00:08:59.714Z,51.75
2018-03-18T00:11:25.573Z,51.46
2018-03-18T00:13:51.474Z,51.26
2018-03-18T00:16:17.336Z,51.41
2018-03-18T00:18:43.263Z,52.32
2018-03-18T00:21:09.189Z,52.07
2018-03-18T00:23:35.041Z,52.04
2018-03-18T00:26:00.895Z,52.86
2018-03-18T00:28:26.792Z,52.82
2018-03-18T00:30:52.716Z,51.46
2018-03-18T00:33:18.565Z,53.04
2018-03-18T00:35:44.468Z,53.23
2018-03-18T00:38:10.308Z,52.30
2018-03-18T00:40:36.181Z,52.36
2018-03-18T00:43:02.189Z,52.91
2018-03-18T00:45:28.044Z,52.04
2018-03-18T00:47:53.893Z,52.42
2018-03-18T00:50:19.797Z,52.88
2018-03-18T00:52:45.632Z,52.97
2018-03-18T00:55:11.565Z,51.89
2018-03-18T00:57:37.768Z,52.10
2018-03-18T01:00:03.632Z,52.90
2018-03-18T01:02:29.562Z,52.51
2018-03-18T01:04:55.480Z,53.57
2018-03-18T01:07:21.412Z,52.24
2018-03-18T01:09:47.258Z,53.01
2018-03-18T01:12:13.147Z,53.07
2018-03-18T01:14:39.005Z,53.17
2018-03-18T01:17:04.852Z,52.21
2018-03-18T01:19:30.854Z,52.30
2018-03-18T01:21:56.790Z,52.54
2018-03-18T01:24:22.670Z,53.15
2018-03-18T01:26:48.870Z,52.87
2018-03-18T01:29:14.766Z,53.44
2018-03-18T01:31:40.729Z,52.74
2018-03-18T01:34:06.924Z,52.71
2018-03-18T01:36:32.772Z,53.33
2018-03-18T01:38:58.618Z,51.97
2018-03-18T01:41:24.505Z,52.78
2018-03-18T01:43:50.445Z,52.64
2018-03-18T01:46:16.296Z,52.56
2018-03-18T01:48:42.198Z,52.20
2018-03-18T01:51:08.050Z,52.33
2018-03-18T01:53:33.896Z,52.90
2018-03-18T01:55:59.864Z,52.38
2018-03-18T01:58:25.726Z,52.40
2018-03-18T02:00:51.682Z,51.62
2018-03-18T02:03:18.055Z,52.49
2018-03-18T02:05:43.916Z,53.10
2018-03-18T02:08:09.861Z,52.54
2018-03-18T02:10:35.763Z,51.17
2018-03-18T02:13:01.627Z,52.25
2018-03-18T02:15:27.496Z,51.97
2018-03-18T02:17:53.794Z,52.20
2018-03-18T02:20:19.758Z,52.49
2018-03-18T02:22:45.661Z,52.68
2018-03-18T02:25:11.565Z,52.71
2018-03-18T02:27:37.421Z,52.19
2018-03-18T02:30:04.218Z,52.29
2018-03-18T02:32:30.294Z,52.49
2018-03-18T02:34:56.170Z,51.01
2018-03-18T02:37:22.022Z,51.35
2018-03-18T02:39:47.945Z,52.16
2018-03-18T02:42:13.818Z,51.27
2018-03-18T02:44:39.772Z,51.65
2018-03-18T02:47:05.677Z,51.92
2018-03-18T02:49:31.533Z,51.71
2018-03-18T02:51:57.396Z,52.07
2018-03-18T02:54:23.390Z,52.31
2018-03-18T02:56:49.437Z,51.70
2018-03-18T02:59:15.304Z,51.50
2018-03-18T03:01:41.229Z,51.44
2018-03-18T03:04:07.141Z,52.25
2018-03-18T03:06:32.989Z,52.15
2018-03-18T03:08:58.965Z,52.72
2018-03-18T03:11:24.870Z,52.24
2018-03-18T03:13:50.730Z,52.01
2018-03-18T03:16:16.703Z,51.54
2018-03-18T03:18:42.560Z,52.59
2018-03-18T03:21:08.491Z,51.45
2018-03-18T03:23:34.453Z,52.00
2018-03-18T03:26:00.312Z,52.30
2018-03-18T03:28:26.208Z,51.81
2018-03-18T03:30:52.109Z,52.07
2018-03-18T03:33:18.049Z,51.56
2018-03-18T03:35:43.900Z,52.35
2018-03-18T03:38:09.798Z,52.08
2018-03-18T03:40:35.694Z,51.23
2018-03-18T03:43:01.545Z,52.19
2018-03-18T03:45:27.517Z,52.24
2018-03-18T03:47:53.441Z,52.81
2018-03-18T03:50:19.619Z,52.35
2018-03-18T03:52:45.581Z,52.56
2018-03-18T03:55:11.456Z,52.90
2018-03-18T03:57:37.390Z,52.68
2018-03-18T04:00:03.316Z,51.65
2018-03-18T04:02:29.164Z,52.66
2018-03-18T04:04:55.218Z,51.95
2018-03-18T04:07:21.179Z,53.57
2018-03-18T04:09:47.124Z,53.40
2018-03-18T04:12:12.981Z,53.02
2018-03-18T04:14:38.894Z,53.67
2018-03-18T04:17:04.804Z,53.54
2018-03-18T04:19:30.655Z,52.66
2018-03-18T04:21:56.633Z,53.06
2018-03-18T04:24:22.492Z,53.59
2018-03-18T04:26:49.033Z,53.79
2018-03-18T04:29:15.914Z,52.40
2018-03-18T04:31:41.861Z,53.27
2018-03-18T04:34:07.791Z,52.09
2018-03-18T04:36:33.713Z,53.10
2018-03-18T04:38:59.563Z,53.45
2018-03-18T04:41:25.492Z,52.24
2018-03-18T04:43:52.129Z,53.45
2018-03-18T04:46:18.013Z,53.51
2018-03-18T04:48:43.910Z,53.80
2018-03-18T04:51:10.181Z,53.85
2018-03-18T04:53:36.046Z,52.91
2018-03-18T04:56:01.903Z,54.12
2018-03-18T04:58:27.882Z,53.97
2018-03-18T05:00:53.746Z,53.71
2018-03-18T05:03:19.610Z,53.85
2018-03-18T05:05:45.524Z,54.17
2018-03-18T05:08:11.485Z,53.54
2018-03-18T05:10:37.352Z,54.27
2018-03-18T05:13:03.253Z,54.89
2018-03-18T05:15:29.105Z,54.09
2018-03-18T05:17:54.994Z,54.04
2018-03-18T05:20:20.898Z,53.76
2018-03-18T05:22:46.753Z,53.82
2018-03-18T05:25:12.596Z,54.39
2018-03-18T05:27:38.498Z,54.19
2018-03-18T05:30:04.345Z,54.35
2018-03-18T05:32:30.207Z,53.07
2018-03-18T05:34:56.169Z,54.56
2018-03-18T05:37:22.041Z,53.46
2018-03-18T05:39:47.925Z,53.66
2018-03-18T05:42:13.825Z,54.30
2018-03-18T05:44:39.665Z,54.32
2018-03-18T05:47:05.520Z,54.27
2018-03-18T05:49:31.408Z,53.79
2018-03-18T05:51:57.281Z,53.67
2018-03-18T05:54:23.147Z,53.26
2018-03-18T05:56:49.073Z,53.04
2018-03-18T05:59:14.940Z,53.53
2018-03-18T06:01:40.805Z,53.12
2018-03-18T06:04:08.447Z,53.52
2018-03-18T06:06:34.487Z,54.37
2018-03-18T06:09:00.374Z,53.06
2018-03-18T06:11:26.310Z,52.85
2018-03-18T06:13:52.176Z,51.63
2018-03-18T06:16:18.049Z,52.77
2018-03-18T06:18:43.957Z,52.04
2018-03-18T06:21:09.809Z,52.02
2018-03-18T06:23:35.682Z,51.89
2018-03-18T06:26:01.602Z,50.58
2018-03-18T06:28:27.458Z,52.23
2018-03-18T06:30:53.312Z,52.04
2018-03-18T06:33:19.260Z,51.39
2018-03-18T06:35:45.162Z,50.88
2018-03-18T06:38:11.005Z,50.88
2018-03-18T06:40:36.900Z,51.69
2018-03-18T06:43:02.753Z,51.16
2018-03-18T06:45:28.601Z,50.91
2018-03-18T06:47:54.517Z,51.29
2018-03-18T06:50:20.369Z,51.23
2018-03-18T06:52:46.212Z,50.45
2018-03-18T06:55:12.461Z,50.67
2018-03-18T06:57:38.323Z,50.80
2018-03-18T07:00:04.206Z,50.90
2018-03-18T07:02:30.100Z,50.14
2018-03-18T07:04:55.949Z,49.18
2018-03-18T07:07:21.798Z,49.27
2018-03-18T07:09:47.705Z,49.17
2018-03-18T07:12:13.544Z,48.41
2018-03-18T07:14:39.404Z,47.69
2018-03-18T07:17:05.351Z,48.32
2018-03-18T07:19:31.212Z,48.53
2018-03-18T07:21:57.078Z,48.78
2018-03-18T07:24:22.989Z,48.76
2018-03-18T07:26:48.854Z,47.43
2018-03-18T07:29:14.725Z,47.40
2018-03-18T07:31:40.629Z,46.23
2018-03-18T07:34:06.486Z,46.92
2018-03-18T07:36:32.489Z,47.11
2018-03-18T07:38:58.619Z,47.24
2018-03-18T07:41:24.525Z,46.82
2018-03-18T07:43:50.424Z,45.52
2018-03-18T07:46:16.317Z,44.71
2018-03-18T07:48:42.286Z,45.61
2018-03-18T07:51:08.174Z,44.99
2018-03-18T07:53:34.075Z,44.39
2018-03-18T07:55:59.921Z,44.93
2018-03-18T07:58:25.768Z,43.80
2018-03-18T08:00:51.757Z,43.44
2018-03-18T08:03:17.622Z,41.98
2018-03-18T08:05:43.483Z,42.60
2018-03-18T08:08:09.387Z,42.77
2018-03-18T08:10:35.249Z,42.45
2018-03-18T08:13:01.209Z,40.78
2018-03-18T08:15:27.095Z,41.50
2018-03-18T08:17:52.970Z,40.74
2018-03-18T08:20:18.894Z,40.39
2018-03-18T08:22:45.151Z,41.72
2018-03-18T08:25:11.131Z,41.35
2018-03-18T08:27:37.017Z,39.98
2018-03-18T08:30:02.936Z,39.98
2018-03-18T08:32:28.859Z,38.91
2018-03-18T08:34:54.849Z,40.05
2018-03-18T08:37:20.854Z,38.87
2018-03-18T08:39:47.035Z,38.70
2018-03-18T08:42:13.048Z,38.48
2018-03-18T08:44:38.992Z,38.51
2018-03-18T08:47:04.861Z,38.60
2018-03-18T08:49:30.822Z,37.01
2018-03-18T08:51:57.270Z,38.32
2018-03-18T08:54:23.120Z,38.61
2018-03-18T08:56:49.037Z,38.08
2018-03-18T08:59:14.988Z,37.88
2018-03-18T09:01:40.916Z,37.17
2018-03-18T09:04:06.801Z,36.52
2018-03-18T09:06:32.754Z,36.26
2018-03-18T09:08:58.675Z,36.55
2018-03-18T09:11:24.542Z,34.91
2018-03-18T09:13:50.542Z,36.12
2018-03-18T09:16:16.414Z,36.32
2018-03-18T09:18:42.273Z,34.95
2018-03-18T09:21:08.246Z,35.21
2018-03-18T09:23:34.129Z,34.62
2018-03-18T09:26:00.154Z,34.62
2018-03-18T09:28:26.377Z,34.77
2018-03-18T09:30:52.259Z,34.65
2018-03-18T09:33:18.169Z,34.14
2018-03-18T09:35:44.077Z,34.06
2018-03-18T09:38:10.014Z,34.41
2018-03-18T09:40:35.873Z,32.52
2018-03-18T09:43:01.781Z,33.31
2018-03-18T09:45:27.693Z,33.82
2018-03-18T09:47:53.537Z,34.37
2018-03-18T09:50:19.554Z,33.68
2018-03-18T09:52:45.426Z,32.33
2018-03-18T09:55:11.269Z,32.31
2018-03-18T09:57:37.226Z,32.18
2018-03-18T10:00:03.131Z,30.47
2018-03-18T10:02:29.099Z,30.67
2018-03-18T10:04:55.002Z,31.56
2018-03-18T10:07:20.886Z,32.78
2018-03-18T10:09:46.900Z,31.27
2018-03-18T10:12:12.823Z,31.69
2018-03-18T10:14:38.777Z,31.81
2018-03-18T10:17:04.622Z,31.72
2018-03-18T10:19:30.525Z,30.05
2018-03-18T10:21:56.427Z,30.61
2018-03-18T10:24:22.294Z,30.52
2018-03-18T10:26:48.609Z,30.85
2018-03-18T10:29:14.469Z,29.73
2018-03-18T10:31:40.350Z,29.59
2018-03-18T10:34:06.313Z,29.56
2018-03-18T10:36:32.228Z,30.46
2018-03-18T10:38:58.174Z,30.43
2018-03-18T10:41:24.121Z,30.26
2018-03-18T10:43:49.978Z,30.21
2018-03-18T10:46:15.885Z,28.32
2018-03-18T10:48:41.841Z,28.70
2018-03-18T10:51:07.762Z,28.46
2018-03-18T10:53:33.647Z,29.73
2018-03-18T10:55:59.902Z,29.79
2018-03-18T10:58:25.841Z,29.12
2018-03-18T11:00:52.627Z,30.26
2018-03-18T11:03:18.666Z,28.02
2018-03-18T11:05:44.528Z,29.54
2018-03-18T11:08:10.377Z,29.50
2018-03-18T11:10:36.321Z,30.73
2018-03-18T11:13:03.017Z,28.34
2018-03-18T11:15:28.965Z,28.01
2018-03-18T11:17:55.252Z,29.42
2018-03-18T11:20:21.116Z,28.30
2018-03-18T11:22:47.053Z,28.49
2018-03-18T11:25:13.306Z,26.98
2018-03-18T11:27:39.252Z,28.59
2018-03-18T11:30:05.121Z,26.49
2018-03-18T11:32:31.033Z,26.32
2018-03-18T11:34:56.945Z,25.37
2018-03-18T11:37:22.800Z,27.03
2018-03-18T11:39:48.790Z,27.39
2018-03-18T11:42:14.648Z,25.21
2018-03-18T11:44:40.505Z,25.43
2018-03-18T11:47:06.469Z,25.18
2018-03-18T11:49:32.394Z,25.78
2018-03-18T11:51:58.293Z,25.86
2018-03-18T11:54:24.275Z,25.98
2018-03-18T11:56:50.092Z,26.32
2018-03-18T11:59:15.997Z,27.43
2018-03-18T12:01:41.955Z,26.47
2018-03-18T12:04:07.931Z,27.03
2018-03-18T12:06:33.772Z,25.78
2018-03-18T12:08:59.690Z,26.23
2018-03-18T12:11:25.601Z,25.91
2018-03-18T12:13:51.462Z,25.70
2018-03-18T12:16:17.467Z,27.65
2018-03-18T12:18:43.328Z,27.08
2018-03-18T12:21:09.205Z,27.37
2018-03-18T12:23:36.189Z,26.67
2018-03-18T12:26:02.059Z,27.96
2018-03-18T12:28:27.997Z,27.24
2018-03-18T12:30:54.268Z,26.99
2018-03-18T12:33:20.133Z,28.20
2018-03-18T12:35:46.054Z,27.45
2018-03-18T12:38:11.936Z,28.00
2018-03-18T12:40:37.879Z,27.38
2018-03-18T12:43:16.214Z,28.26
2018-03-18T12:45:42.073Z,28.22
2018-03-18T12:48:08.100Z,26.50
2018-03-18T12:50:34.009Z,28.87
2018-03-18T12:52:59.947Z,28.69
2018-03-18T12:55:25.792Z,28.00
2018-03-18T12:57:51.693Z,27.41
2018-03-18T13:00:17.607Z,29.23
2018-03-18T13:02:43.455Z,28.37
2018-03-18T13:05:09.437Z,28.06
2018-03-18T13:07:35.293Z,28.33
2018-03-18T13:10:01.144Z,28.53
2018-03-18T13:12:27.140Z,28.82
2018-03-18T13:14:52.973Z,27.18
2018-03-18T13:17:19.032Z,27.90
2018-03-18T13:19:44.946Z,27.37
2018-03-18T13:22:10.792Z,28.34
2018-03-18T13:24:36.697Z,26.96
2018-03-18T13:27:02.612Z,27.54
2018-03-18T13:29:28.540Z,26.66
2018-03-18T13:31:54.390Z,28.32
2018-03-18T13:34:20.597Z,28.62
2018-03-18T13:36:46.519Z,28.04
2018-03-18T13:39:12.402Z,28.80
2018-03-18T13:41:38.393Z,27.57
2018-03-18T13:44:04.276Z,26.91
2018-03-18T13:46:30.137Z,28.94
2018-03-18T13:48:56.088Z,29.05
2018-03-18T13:51:21.929Z,28.33
2018-03-18T13:53:47.862Z,27.49
2018-03-18T13:56:13.781Z,27.81
2018-03-18T13:58:39.695Z,29.07
2018-03-18T14:01:05.598Z,29.07
2018-03-18T14:03:31.488Z,28.72
2018-03-18T14:05:57.437Z,28.50
2018-03-18T14:08:23.282Z,27.46
2018-03-18T14:10:49.189Z,28.34
2018-03-18T14:13:15.097Z,27.31
2018-03-18T14:15:40.948Z,28.02
2018-03-18T14:18:06.925Z,29.83
2018-03-18T14:20:32.797Z,28.75
2018-03-18T14:22:58.648Z,27.91
2018-03-18T14:25:24.584Z,28.78
2018-03-18T14:27:50.442Z,28.64
2018-03-18T14:30:16.383Z,29.12
2018-03-18T14:32:42.284Z,29.04
2018-03-18T14:35:08.137Z,29.29
2018-03-18T14:37:34.032Z,28.47
2018-03-18T14:39:59.928Z,29.21
2018-03-18T14:42:25.865Z,29.29
2018-03-18T14:44:51.720Z,29.56
2018-03-18T14:47:17.609Z,30.07
2018-03-18T14:49:43.519Z,29.89
2018-03-18T14:52:09.398Z,30.67
2018-03-18T14:54:35.411Z,28.81
2018-03-18T14:57:01.285Z,30.35
2018-03-18T14:59:27.136Z,30.90
2018-03-18T15:01:53.092Z,31.18
2018-03-18T15:04:18.958Z,30.36
2018-03-18T15:06:44.886Z,30.02
2018-03-18T15:09:10.782Z,29.18
2018-03-18T15:11:36.624Z,28.93
2018-03-18T15:14:02.547Z,29.55
2018-03-18T15:16:28.584Z,29.76
2018-03-18T15:18:54.536Z,29.85
2018-03-18T15:21:20.386Z,29.48
2018-03-18T15:23:46.288Z,29.72
2018-03-18T15:26:12.199Z,30.92
2018-03-18T15:28:38.052Z,29.25
2018-03-18T15:31:04.045Z,31.10
2018-03-18T15:33:29.900Z,30.32
2018-03-18T15:35:55.745Z,31.41
2018-03-18T15:38:21.701Z,31.49
2018-03-18T15:40:47.549Z,30.87
2018-03-18T15:43:13.484Z,31.98
2018-03-18T15:45:39.392Z,30.60
2018-03-18T15:48:05.246Z,31.98
2018-03-18T15:50:31.154Z,30.86
2018-03-18T15:52:57.041Z,31.16
2018-03-18T15:55:22.984Z,31.45
2018-03-18T15:57:48.820Z,30.17
2018-03-18T16:00:14.712Z,30.56
2018-03-18T16:02:40.613Z,30.05
2018-03-18T16:05:06.464Z,31.36
2018-03-18T16:07:32.449Z,30.99
2018-03-18T16:09:58.305Z,30.39
2018-03-18T16:12:24.157Z,31.17
2018-03-18T16:14:50.102Z,30.08
2018-03-18T16:17:15.945Z,29.96
2018-03-18T16:19:41.882Z,30.89
2018-03-18T16:22:07.784Z,29.96
2018-03-18T16:24:33.625Z,30.65
2018-03-18T16:26:59.526Z,30.40
2018-03-18T16:29:37.649Z,29.87
2018-03-18T16:32:03.605Z,30.46
2018-03-18T16:34:29.440Z,31.16
2018-03-18T16:36:55.341Z,30.48
2018-03-18T16:39:21.257Z,31.25
2018-03-18T16:41:47.105Z,31.02
2018-03-18T16:44:13.080Z,30.82
2018-03-18T16:46:38.937Z,30.41
2018-03-18T16:49:04.794Z,30.60
2018-03-18T16:51:30.753Z,31.46
2018-03-18T16:53:56.613Z,31.60
2018-03-18T16:56:22.544Z,32.15
2018-03-18T16:58:48.441Z,32.11
2018-03-18T17:01:14.297Z,33.24
2018-03-18T17:03:40.218Z,33.34
2018-03-18T17:06:06.126Z,32.21
2018-03-18T17:08:32.092Z,33.05
2018-03-18T17:10:57.958Z,32.29
2018-03-18T17:13:24.191Z,32.71
2018-03-18T17:15:50.108Z,33.61
2018-03-18T17:18:15.953Z,33.63
2018-03-18T17:20:41.938Z,33.03
2018-03-18T17:23:07.805Z,33.54
2018-03-18T17:25:33.657Z,33.07
2018-03-18T17:27:59.638Z,32.88
2018-03-18T17:30:25.490Z,33.07
2018-03-18T17:32:51.440Z,35.28
2018-03-18T17:35:17.335Z,34.96
2018-03-18T17:37:43.185Z,34.97
2018-03-18T17:40:09.109Z,34.75
2018-03-18T17:42:34.997Z,33.51
2018-03-18T17:45:13.113Z,33.63
2018-03-18T17:47:51.444Z,34.05
2018-03-18T17:50:18.357Z,33.83
2018-03-18T17:52:56.617Z,34.38
2018-03-18T17:55:29.530Z,35.18
2018-03-18T17:57:55.387Z,35.17
2018-03-18T18:00:21.344Z,34.78
2018-03-18T18:02:47.190Z,34.67
2018-03-18T18:05:13.076Z,35.18
2018-03-18T18:07:39.078Z,34.65
2018-03-18T18:10:05.025Z,34.34
2018-03-18T18:12:30.934Z,35.27
2018-03-18T18:14:57.534Z,34.24
2018-03-18T18:17:23.513Z,33.97
2018-03-18T18:19:49.405Z,34.60
2018-03-18T18:22:15.371Z,34.60
2018-03-18T18:24:41.290Z,33.54
2018-03-18T18:27:07.201Z,34.52
2018-03-18T18:29:35.616Z,34.50
2018-03-18T18:32:01.465Z,34.43
2018-03-18T18:34:27.342Z,34.47
2018-03-18T18:36:53.241Z,34.67
2018-03-18T20:34:10.738Z,39.47
2018-03-18T20:36:36.804Z,39.48
2018-03-18T20:39:02.744Z,39.67
2018-03-18T20:41:29.384Z,40.12
2018-03-18T20:43:55.257Z,39.44
2018-03-18T20:46:21.118Z,39.85
2018-03-18T20:48:47.061Z,40.18
2018-03-18T20:51:13.160Z,40.92
2018-03-18T20:53:39.321Z,40.66
2018-03-18T20:56:05.248Z,41.18
2018-03-18T20:58:31.384Z,42.41
2018-03-18T21:00:57.254Z,41.78
2018-03-18T21:03:23.562Z,40.89
2018-03-18T21:05:49.488Z,41.57
2018-03-18T21:08:15.336Z,41.67
2018-03-18T21:10:41.566Z,41.32
2018-03-18T21:13:07.430Z,42.13
2018-03-18T21:15:33.284Z,42.00
2018-03-18T21:17:59.177Z,42.25
2018-03-18T21:20:25.028Z,40.53
2018-03-18T21:22:50.877Z,41.24
2018-03-18T21:25:16.776Z,40.62
2018-03-18T21:27:42.621Z,43.00
2018-03-18T21:30:08.863Z,40.26
2018-03-18T21:32:34.872Z,40.47
2018-03-18T21:35:00.857Z,41.90
2018-03-18T21:37:26.745Z,40.75
2018-03-18T21:39:52.641Z,41.03
2018-03-18T21:42:18.484Z,42.57
2018-03-18T21:44:44.344Z,42.79
2018-03-18T21:47:10.235Z,42.36
2018-03-18T21:49:36.165Z,41.04
2018-03-18T21:52:02.049Z,42.19
2018-03-18T21:54:27.940Z,41.35
2018-03-18T21:56:53.792Z,41.79
2018-03-18T21:59:19.642Z,41.76
2018-03-18T22:01:45.550Z,41.39
2018-03-18T22:04:11.395Z,42.40
2018-03-18T22:06:37.264Z,42.78
2018-03-18T22:09:03.234Z,42.35
2018-03-18T22:11:29.141Z,42.17
2018-03-18T22:13:55.006Z,42.31
2018-03-18T22:16:20.941Z,43.04
2018-03-18T22:18:46.785Z,43.50
2018-03-18T22:21:12.674Z,42.70
2018-03-18T22:23:38.585Z,42.69
2018-03-18T22:26:04.454Z,42.13
2018-03-18T22:28:30.323Z,42.01
2018-03-18T22:30:56.237Z,43.07
2018-03-18T22:33:22.145Z,43.38
2018-03-18T22:35:48.093Z,42.96
2018-03-18T22:38:13.982Z,43.10
2018-03-18T22:40:39.834Z,43.27
2018-03-18T22:43:05.694Z,43.73
2018-03-18T22:45:31.618Z,43.87
2018-03-18T22:47:57.624Z,43.39
2018-03-18T22:50:23.485Z,43.81
2018-03-18T22:52:49.379Z,43.60
2018-03-18T22:55:15.237Z,44.76
2018-03-18T22:57:41.090Z,43.56
2018-03-18T23:00:07.857Z,44.36
2018-03-18T23:02:33.736Z,43.22
2018-03-18T23:04:59.589Z,43.53
2018-03-18T23:07:25.489Z,43.94
2018-03-18T23:09:51.337Z,44.31
2018-03-18T23:12:17.277Z,44.65
2018-03-18T23:14:43.263Z,45.38
2018-03-18T23:17:09.122Z,44.47
2018-03-18T23:19:34.978Z,45.18
2018-03-18T23:22:00.860Z,44.99
2018-03-18T23:24:26.811Z,44.73
2018-03-18T23:26:52.774Z,45.27
2018-03-18T23:29:18.684Z,45.00
2018-03-18T23:31:44.533Z,46.40
2018-03-18T23:34:10.385Z,45.87
2018-03-18T23:36:36.400Z,45.52
2018-03-18T23:39:02.351Z,45.65
2018-03-18T23:41:28.232Z,45.42
2018-03-18T23:43:54.144Z,45.10
2018-03-18T23:46:19.994Z,46.11
2018-03-18T23:48:45.953Z,45.26
2018-03-18T23:51:12.224Z,46.34
2018-03-18T23:53:38.067Z,46.39
2018-03-18T23:56:03.929Z,46.65
2018-03-18T23:58:29.865Z,46.72
